Time;durP1;ratioP1;P1;durP2;ratioP2;P2;SDS_P1;SDS_P2;PMS_P1;PMS_P2;Temp;Humidity;BMP_temperature;BMP_pressure;BME280_temperature;BME280_humidity;BME280_pressure;Samples;Min_cycle;Max_cycle;Signal;HPM_P1;HPM_P2
2021/09/11 00:02:05;;;;;;;9.33;8.50;;;19.40;85.40;;;;;;4995498;28;20430;-73
2021/09/11 00:04:32;;;;;;;9.90;9.10;;;19.40;84.90;;;;;;4995187;28;20466;-74
2021/09/11 00:06:59;;;;;;;8.93;8.23;;;19.40;84.90;;;;;;4994409;28;20462;-74
2021/09/11 00:09:26;;;;;;;8.37;7.67;;;19.30;84.80;;;;;;5005844;28;20878;-74
2021/09/11 00:11:52;;;;;;;9.03;8.10;;;19.30;84.80;;;;;;4999261;28;20944;-74
2021/09/11 00:14:21;;;;;;;8.23;7.43;;;19.30;84.80;;;;;;4996293;28;20468;-74
2021/09/11 00:16:48;;;;;;;8.90;8.07;;;19.30;84.80;;;;;;4995460;28;20562;-74
2021/09/11 00:19:15;;;;;;;9.60;8.30;;;19.30;84.80;;;;;;4993952;28;20454;-74
2021/09/11 00:21:41;;;;;;;10.40;8.67;;;19.20;85.10;;;;;;4993802;28;20491;-73
2021/09/11 00:24:08;;;;;;;8.73;7.97;;;19.20;84.70;;;;;;4994370;28;20514;-74
2021/09/11 00:26:35;;;;;;;9.83;8.80;;;19.30;84.80;;;;;;4993588;28;20455;-74
2021/09/11 00:29:02;;;;;;;9.23;8.33;;;19.30;84.80;;;;;;4993563;28;20476;-74
2021/09/11 00:31:30;;;;;;;8.00;7.30;;;19.20;84.70;;;;;;4993663;28;20465;-73
2021/09/11 00:33:57;;;;;;;8.80;7.60;;;19.20;84.70;;;;;;4994017;28;20991;-73
2021/09/11 00:36:24;;;;;;;8.00;7.20;;;19.20;84.70;;;;;;4993626;28;20996;-73
2021/09/11 00:38:51;;;;;;;8.33;7.53;;;19.10;84.60;;;;;;4993977;28;20708;-74
2021/09/11 00:41:18;;;;;;;7.60;6.90;;;19.10;84.60;;;;;;4993921;28;20515;-74
2021/09/11 00:43:47;;;;;;;7.50;6.80;;;19.10;84.60;;;;;;4993714;28;20558;-74
2021/09/11 00:46:14;;;;;;;7.37;6.67;;;19.00;85.00;;;;;;4993655;28;20487;-73
2021/09/11 00:48:43;;;;;;;9.50;6.87;;;19.00;85.50;;;;;;4993736;28;20479;-74
2021/09/11 00:51:11;;;;;;;8.43;6.50;;;19.00;86.60;;;;;;4993587;28;20551;-74
2021/09/11 00:53:39;;;;;;;7.40;6.47;;;19.00;86.50;;;;;;4993745;28;20527;-74
2021/09/11 00:56:07;;;;;;;6.60;5.97;;;19.00;85.80;;;;;;4994836;28;20460;-74
2021/09/11 00:58:34;;;;;;;5.93;5.43;;;19.00;85.90;;;;;;5003029;28;20477;-74
2021/09/11 01:01:01;;;;;;;5.93;5.40;;;19.00;86.30;;;;;;5015956;28;20411;-74
2021/09/11 01:03:27;;;;;;;5.90;5.40;;;19.00;87.20;;;;;;5011336;28;20410;-73
2021/09/11 01:05:56;;;;;;;6.20;5.60;;;18.90;87.40;;;;;;5017966;28;20426;-74
2021/09/11 01:08:22;;;;;;;5.67;5.17;;;18.90;88.00;;;;;;5017665;28;20457;-74
2021/09/11 01:10:49;;;;;;;6.07;5.57;;;18.90;88.50;;;;;;5015237;28;20519;-74
2021/09/11 01:13:16;;;;;;;5.90;5.40;;;18.90;89.00;;;;;;5012515;28;20455;-75
2021/09/11 01:15:44;;;;;;;5.63;5.20;;;18.80;89.60;;;;;;5006253;28;20525;-74
2021/09/11 01:18:11;;;;;;;7.90;6.10;;;18.80;90.40;;;;;;5002151;28;20543;-75
2021/09/11 01:20:39;;;;;;;5.40;4.90;;;18.80;91.10;;;;;;4997224;28;20541;-74
2021/09/11 01:23:07;;;;;;;6.27;5.30;;;18.80;91.20;;;;;;4994942;28;20442;-75
2021/09/11 01:25:35;;;;;;;6.20;5.60;;;18.80;91.20;;;;;;4994314;28;20483;-75
2021/09/11 01:28:02;;;;;;;6.67;6.07;;;18.70;91.70;;;;;;4993817;28;20434;-75
2021/09/11 01:30:29;;;;;;;5.87;5.27;;;18.70;92.10;;;;;;4993600;28;20496;-74
2021/09/11 01:32:56;;;;;;;6.07;5.57;;;18.70;92.90;;;;;;4993214;28;20487;-74
2021/09/11 01:35:23;;;;;;;7.27;6.10;;;18.70;93.00;;;;;;4992975;28;20526;-74
2021/09/11 01:37:50;;;;;;;7.07;6.40;;;18.70;93.40;;;;;;4992929;28;20498;-75
2021/09/11 01:40:17;;;;;;;6.70;6.20;;;18.70;93.70;;;;;;4992728;28;20999;-75
2021/09/11 01:42:45;;;;;;;6.87;6.27;;;18.70;93.50;;;;;;4993062;28;20457;-75
2021/09/11 01:45:14;;;;;;;6.10;5.60;;;18.60;93.80;;;;;;4994182;28;20459;-75
2021/09/11 01:47:42;;;;;;;6.70;6.00;;;18.60;94.10;;;;;;4993797;28;20466;-75
2021/09/11 01:50:11;;;;;;;6.90;6.23;;;18.70;94.10;;;;;;4992981;28;20563;-75
2021/09/11 01:52:38;;;;;;;6.80;6.20;;;18.60;93.90;;;;;;4993171;28;20434;-76
2021/09/11 01:55:07;;;;;;;5.80;5.40;;;18.60;94.30;;;;;;4993366;28;20454;-74
2021/09/11 01:57:35;;;;;;;7.77;7.07;;;18.60;94.80;;;;;;4992234;28;20469;-74
2021/09/11 02:00:04;;;;;;;14.73;7.00;;;18.60;94.80;;;;;;4992896;28;20492;-74
2021/09/11 02:02:31;;;;;;;6.77;6.17;;;18.60;94.90;;;;;;4993014;28;20442;-74
2021/09/11 02:04:58;;;;;;;7.10;6.50;;;18.60;94.90;;;;;;4993055;28;20875;-74
2021/09/11 02:07:25;;;;;;;7.23;6.60;;;18.60;95.30;;;;;;4992915;28;20462;-74
2021/09/11 02:09:52;;;;;;;6.50;5.97;;;18.50;95.30;;;;;;4992732;28;20846;-74
2021/09/11 02:12:18;;;;;;;6.90;6.30;;;18.50;95.80;;;;;;4993197;28;20525;-74
2021/09/11 02:14:45;;;;;;;7.60;6.83;;;18.50;96.00;;;;;;4993125;28;20530;-75
2021/09/11 02:17:14;;;;;;;6.87;6.27;;;18.50;96.20;;;;;;4993312;28;20483;-75
2021/09/11 02:19:41;;;;;;;7.60;6.83;;;18.60;96.10;;;;;;5004769;28;20495;-74
2021/09/11 02:22:10;;;;;;;6.70;6.10;;;18.60;95.60;;;;;;4995369;28;20591;-75
2021/09/11 02:24:38;;;;;;;6.70;6.10;;;18.50;95.70;;;;;;4993281;28;20495;-75
2021/09/11 02:27:05;;;;;;;7.97;7.27;;;18.50;96.20;;;;;;4992789;28;20525;-75
2021/09/11 02:29:33;;;;;;;6.10;5.60;;;18.50;96.10;;;;;;4994399;28;20602;-74
2021/09/11 02:32:01;;;;;;;8.47;7.67;;;18.50;96.40;;;;;;4996358;28;20557;-74
2021/09/11 02:34:31;;;;;;;9.23;6.70;;;18.50;96.60;;;;;;4996136;28;20558;-74
2021/09/11 02:36:58;;;;;;;6.80;6.20;;;18.50;96.80;;;;;;4996090;28;20426;-75
2021/09/11 02:39:25;;;;;;;7.80;7.10;;;18.50;96.60;;;;;;4996345;28;20557;-74
2021/09/11 02:41:52;;;;;;;7.63;6.93;;;18.50;96.60;;;;;;4996482;28;20489;-74
2021/09/11 02:44:19;;;;;;;8.00;7.00;;;18.40;97.00;;;;;;4996360;28;20468;-74
2021/09/11 02:46:46;;;;;;;7.50;6.90;;;18.40;97.50;;;;;;4996706;28;20482;-74
2021/09/11 02:49:13;;;;;;;7.43;6.77;;;18.40;97.80;;;;;;4997100;28;20915;-74
2021/09/11 02:51:41;;;;;;;6.93;6.33;;;18.40;98.20;;;;;;4997007;28;20461;-74
2021/09/11 02:54:08;;;;;;;7.40;6.70;;;18.50;97.70;;;;;;4996717;28;20922;-75
2021/09/11 02:56:35;;;;;;;8.13;7.33;;;18.50;97.80;;;;;;4996654;28;20503;-74
2021/09/11 02:59:02;;;;;;;6.43;5.93;;;18.50;97.80;;;;;;4996888;28;20879;-74
2021/09/11 03:01:30;;;;;;;8.13;7.37;;;18.50;98.10;;;;;;4996554;28;20494;-74
2021/09/11 03:03:56;;;;;;;6.93;6.33;;;18.50;98.00;;;;;;4996798;28;20546;-75
2021/09/11 03:06:23;;;;;;;7.37;6.70;;;18.40;98.00;;;;;;4999305;28;20437;-75
2021/09/11 03:08:51;;;;;;;7.40;6.73;;;18.40;97.90;;;;;;4996130;28;20496;-76
2021/09/11 03:11:18;;;;;;;7.37;6.67;;;18.50;98.30;;;;;;4996601;28;20594;-75
2021/09/11 03:13:45;;;;;;;7.43;6.83;;;18.50;98.30;;;;;;4996371;28;20458;-75
2021/09/11 03:16:12;;;;;;;7.80;7.10;;;18.40;98.30;;;;;;4996380;28;20460;-75
2021/09/11 03:18:39;;;;;;;7.40;6.80;;;18.40;98.40;;;;;;4996269;28;20536;-74
2021/09/11 03:21:06;;;;;;;7.80;7.10;;;18.40;98.80;;;;;;4996393;28;20951;-74
2021/09/11 03:23:33;;;;;;;7.83;7.13;;;18.30;98.60;;;;;;4996257;28;20455;-74
2021/09/11 03:26:02;;;;;;;8.20;7.30;;;18.20;99.20;;;;;;4996795;28;20546;-75
2021/09/11 03:28:28;;;;;;;8.50;7.70;;;18.10;99.90;;;;;;4996098;28;20550;-75
2021/09/11 03:30:55;;;;;;;8.53;7.73;;;18.10;99.90;;;;;;4996361;28;20486;-75
2021/09/11 03:33:22;;;;;;;9.33;8.43;;;18.10;99.90;;;;;;4995571;28;20505;-74
2021/09/11 03:35:49;;;;;;;8.43;7.63;;;18.10;99.90;;;;;;4995624;28;20863;-73
2021/09/11 03:38:16;;;;;;;8.43;7.63;;;18.00;99.90;;;;;;4996494;28;20529;-75
2021/09/11 03:40:43;;;;;;;8.77;7.90;;;18.00;99.90;;;;;;4996225;28;20624;-75
2021/09/11 03:43:11;;;;;;;11.00;9.07;;;18.10;99.90;;;;;;4997280;28;20537;-74
2021/09/11 03:45:38;;;;;;;9.90;8.90;;;18.10;99.90;;;;;;4995159;28;20844;-74
2021/09/11 03:48:05;;;;;;;10.60;9.00;;;18.10;99.90;;;;;;4995484;28;20548;-74
2021/09/11 03:50:32;;;;;;;10.10;9.20;;;18.10;99.90;;;;;;4994747;28;20483;-74
2021/09/11 03:52:59;;;;;;;11.20;8.63;;;18.10;99.90;;;;;;4994872;28;20450;-75
2021/09/11 03:55:26;;;;;;;10.97;9.53;;;18.10;99.90;;;;;;4994651;28;20970;-75
2021/09/11 03:57:53;;;;;;;9.60;8.70;;;18.10;99.90;;;;;;4995272;28;20542;-74
2021/09/11 04:00:22;;;;;;;9.50;8.57;;;18.10;99.90;;;;;;4996378;28;20525;-74
2021/09/11 04:02:48;;;;;;;10.03;8.77;;;18.10;99.90;;;;;;5014116;28;20470;-74
2021/09/11 04:05:15;;;;;;;10.27;9.20;;;18.10;99.90;;;;;;5015049;28;20434;-74
2021/09/11 04:07:42;;;;;;;10.23;8.70;;;18.10;99.90;;;;;;5002454;28;20432;-76
2021/09/11 04:10:10;;;;;;;11.17;9.40;;;18.20;99.90;;;;;;4995475;28;20577;-74
2021/09/11 04:12:37;;;;;;;9.40;8.40;;;18.20;99.90;;;;;;4976289;28;20530;-74
2021/09/11 04:15:04;;;;;;;9.90;9.00;;;18.20;99.90;;;;;;4976513;28;20467;-75
2021/09/11 04:17:33;;;;;;;9.93;8.93;;;18.20;99.90;;;;;;4995075;28;20437;-75
2021/09/11 04:20:00;;;;;;;8.77;7.97;;;18.20;99.90;;;;;;4994749;28;20569;-75
2021/09/11 04:22:26;;;;;;;9.07;8.17;;;18.20;99.90;;;;;;4995379;28;20485;-75
2021/09/11 04:24:53;;;;;;;11.07;8.73;;;18.20;99.90;;;;;;4995326;28;20543;-75
2021/09/11 04:27:20;;;;;;;8.90;8.03;;;18.20;99.90;;;;;;4995700;28;20937;-75
2021/09/11 04:29:47;;;;;;;9.80;8.63;;;18.30;99.90;;;;;;5038813;23;20466;-73
2021/09/11 04:32:14;;;;;;;10.50;8.40;;;18.30;99.90;;;;;;5032793;28;20585;-73
2021/09/11 04:34:42;;;;;;;10.23;9.30;;;18.20;99.90;;;;;;5032201;28;20551;-73
2021/09/11 04:37:09;;;;;;;10.07;9.17;;;18.20;99.90;;;;;;5032633;28;20976;-73
2021/09/11 04:39:36;;;;;;;11.93;8.80;;;18.20;99.90;;;;;;5042551;28;20488;-73
2021/09/11 04:42:03;;;;;;;12.83;10.50;;;18.10;99.90;;;;;;5052239;28;20940;-74
2021/09/11 04:44:30;;;;;;;10.20;9.30;;;18.10;99.90;;;;;;5040632;28;20524;-74
2021/09/11 04:46:57;;;;;;;9.47;8.47;;;18.00;99.90;;;;;;5032282;28;20837;-74
2021/09/11 04:49:24;;;;;;;10.60;9.50;;;18.00;99.90;;;;;;5042162;28;20567;-74
2021/09/11 04:51:52;;;;;;;9.43;8.40;;;17.90;99.90;;;;;;5052052;28;20465;-74
2021/09/11 04:54:19;;;;;;;10.23;9.17;;;17.90;99.90;;;;;;5052108;28;20543;-74
2021/09/11 04:56:46;;;;;;;10.73;8.80;;;17.90;99.90;;;;;;5046399;28;20503;-74
2021/09/11 04:59:13;;;;;;;9.90;9.00;;;17.90;99.90;;;;;;5032385;28;20513;-74
2021/09/11 05:01:39;;;;;;;10.13;8.63;;;17.90;99.90;;;;;;5041845;28;20484;-74
2021/09/11 05:04:07;;;;;;;10.87;9.73;;;18.00;99.90;;;;;;5053126;28;20461;-74
2021/09/11 05:06:34;;;;;;;14.10;9.57;;;18.00;99.90;;;;;;5044888;28;20471;-74
2021/09/11 05:09:02;;;;;;;9.60;8.70;;;18.00;99.90;;;;;;5043809;28;20470;-74
2021/09/11 05:11:29;;;;;;;10.10;9.10;;;18.10;99.90;;;;;;5060091;28;20466;-74
2021/09/11 05:13:56;;;;;;;10.60;9.53;;;18.10;99.90;;;;;;5068096;28;20454;-73
2021/09/11 05:16:23;;;;;;;10.07;9.10;;;18.20;99.90;;;;;;5071416;28;20490;-74
2021/09/11 05:18:50;;;;;;;9.27;8.47;;;18.20;99.90;;;;;;5054060;28;20479;-73
2021/09/11 05:21:17;;;;;;;10.40;9.40;;;18.20;99.90;;;;;;5039544;28;20449;-74
2021/09/11 05:23:44;;;;;;;9.83;8.23;;;18.20;99.90;;;;;;5033361;28;20548;-74
2021/09/11 05:26:12;;;;;;;9.20;8.30;;;18.20;99.90;;;;;;5033170;28;20457;-75
2021/09/11 05:31:06;;;;;;;14.87;8.30;;;18.30;99.90;;;;;;5149263;27;20736;-72
2021/09/11 05:33:33;;;;;;;9.30;8.40;;;18.20;99.90;;;;;;5096855;28;20447;-72
2021/09/11 05:36:00;;;;;;;9.30;8.10;;;18.10;99.90;;;;;;5091311;28;20427;-73
2021/09/11 05:38:26;;;;;;;9.03;8.20;;;18.10;99.90;;;;;;5090320;28;20911;-73
2021/09/11 05:40:53;;;;;;;9.83;8.20;;;18.10;99.90;;;;;;5089939;28;20534;-73
2021/09/11 05:43:20;;;;;;;8.70;7.80;;;18.10;99.90;;;;;;5127569;22;20530;-74
2021/09/11 05:45:47;;;;;;;8.80;8.00;;;18.20;99.90;;;;;;5070657;28;20930;-74
2021/09/11 05:48:15;;;;;;;8.50;7.70;;;18.20;99.90;;;;;;5071642;28;20456;-74
2021/09/11 05:50:42;;;;;;;11.53;8.73;;;18.30;99.90;;;;;;5072308;28;20517;-75
2021/09/11 05:53:09;;;;;;;8.33;7.53;;;18.30;99.90;;;;;;5070858;28;20526;-75
2021/09/11 05:55:36;;;;;;;9.10;8.20;;;18.30;99.90;;;;;;5071416;28;20575;-74
2021/09/11 05:58:04;;;;;;;9.07;8.27;;;18.40;99.90;;;;;;5070987;28;20462;-73
2021/09/11 06:00:30;;;;;;;8.27;7.57;;;18.40;99.90;;;;;;5070670;28;20452;-74
2021/09/11 06:02:57;;;;;;;8.33;7.53;;;18.50;99.90;;;;;;5067104;28;20559;-75
2021/09/11 06:05:26;;;;;;;8.80;8.00;;;18.60;99.90;;;;;;5075311;28;20453;-74
2021/09/11 06:07:53;;;;;;;9.93;8.93;;;18.60;99.90;;;;;;5069864;28;20465;-74
2021/09/11 06:10:20;;;;;;;9.83;8.83;;;18.60;99.90;;;;;;5068923;28;20559;-74
2021/09/11 06:12:46;;;;;;;9.73;8.80;;;18.70;99.90;;;;;;5069225;28;20563;-74
2021/09/11 06:15:13;;;;;;;9.77;8.77;;;18.80;98.60;;;;;;5075886;28;20534;-74
2021/09/11 06:17:40;;;;;;;8.50;7.60;;;18.70;98.50;;;;;;5081183;28;20538;-74
2021/09/11 06:20:10;;;;;;;11.07;7.77;;;18.80;98.50;;;;;;5078503;28;20449;-74
2021/09/11 06:22:38;;;;;;;11.13;8.47;;;18.80;97.60;;;;;;5086202;28;20508;-75
2021/09/11 06:25:07;;;;;;;9.87;8.87;;;18.90;96.80;;;;;;5079406;28;20455;-73
2021/09/11 06:27:34;;;;;;;8.40;7.60;;;18.80;97.10;;;;;;5078247;28;20832;-74
2021/09/11 06:30:01;;;;;;;8.23;7.53;;;18.90;97.30;;;;;;5069068;28;20485;-74
2021/09/11 06:32:30;;;;;;;9.03;8.00;;;18.90;97.00;;;;;;5063488;28;20448;-73
2021/09/11 06:34:57;;;;;;;7.83;7.03;;;18.90;96.60;;;;;;5076493;28;20427;-73
2021/09/11 06:37:23;;;;;;;8.50;7.70;;;18.80;96.70;;;;;;5068289;28;20470;-74
2021/09/11 06:39:52;;;;;;;8.17;7.00;;;18.90;96.80;;;;;;5068343;28;20492;-74
2021/09/11 06:42:20;;;;;;;8.97;7.27;;;18.90;96.80;;;;;;5053780;28;20553;-74
2021/09/11 06:44:46;;;;;;;8.30;7.40;;;19.00;96.30;;;;;;5060617;28;20484;-75
2021/09/11 06:47:14;;;;;;;7.70;6.90;;;19.10;96.20;;;;;;5054908;28;20427;-74
2021/09/11 06:49:42;;;;;;;7.53;6.83;;;19.30;95.20;;;;;;5067321;28;20490;-74
2021/09/11 06:52:10;;;;;;;8.97;7.10;;;19.30;94.50;;;;;;5074759;28;20544;-74
2021/09/11 06:54:37;;;;;;;9.53;7.90;;;19.40;94.10;;;;;;5058128;28;20509;-74
2021/09/11 06:57:06;;;;;;;8.37;7.57;;;19.50;93.40;;;;;;5054270;28;20895;-74
2021/09/11 06:59:32;;;;;;;8.57;7.13;;;19.60;91.90;;;;;;5054480;28;20538;-73
2021/09/11 07:01:59;;;;;;;7.50;6.80;;;19.60;91.50;;;;;;5055388;28;20490;-73
2021/09/11 07:04:26;;;;;;;8.70;6.67;;;19.60;91.50;;;;;;5050857;28;20511;-74
2021/09/11 07:06:53;;;;;;;7.13;6.53;;;19.60;90.90;;;;;;5059933;28;20455;-75
2021/09/11 07:09:20;;;;;;;6.80;6.20;;;19.60;90.80;;;;;;5054317;28;20486;-74
2021/09/11 07:11:47;;;;;;;7.00;6.30;;;19.50;91.00;;;;;;5058431;28;20444;-74
2021/09/11 07:14:16;;;;;;;8.70;7.20;;;19.60;91.00;;;;;;5069159;28;20478;-73
2021/09/11 07:16:43;;;;;;;7.50;6.80;;;19.60;91.00;;;;;;5080851;28;20451;-74
2021/09/11 07:19:10;;;;;;;6.63;6.03;;;19.60;90.60;;;;;;5067468;28;21032;-73
2021/09/11 07:21:39;;;;;;;7.20;6.60;;;19.70;90.60;;;;;;5055963;28;20489;-74
2021/09/11 07:24:06;;;;;;;8.27;7.47;;;19.90;90.00;;;;;;5055149;28;20519;-75
2021/09/11 07:26:33;;;;;;;7.10;6.50;;;19.90;89.30;;;;;;5055833;28;20546;-72
2021/09/11 07:29:00;;;;;;;9.53;6.57;;;19.90;87.70;;;;;;5054524;28;20437;-73
2021/09/11 07:31:28;;;;;;;7.90;7.10;;;19.90;87.80;;;;;;5055221;28;20512;-73
2021/09/11 07:33:55;;;;;;;7.40;6.70;;;19.90;87.80;;;;;;5055172;28;20480;-74
2021/09/11 07:36:22;;;;;;;7.47;6.73;;;19.90;88.50;;;;;;5053742;28;20453;-73
2021/09/11 07:38:50;;;;;;;7.57;6.90;;;20.00;87.30;;;;;;5072971;28;20507;-76
2021/09/11 07:41:17;;;;;;;7.20;6.60;;;20.10;86.20;;;;;;5069291;28;20782;-72
2021/09/11 07:43:44;;;;;;;7.60;6.60;;;20.20;85.60;;;;;;5058580;28;20573;-74
2021/09/11 07:46:15;;;;;;;7.70;6.27;;;20.30;84.40;;;;;;5055812;28;20963;-74
2021/09/11 07:48:43;;;;;;;6.20;5.70;;;20.40;83.70;;;;;;5056510;28;20461;-74
2021/09/11 07:51:10;;;;;;;8.33;6.37;;;20.40;83.80;;;;;;5055554;28;20585;-73
2021/09/11 07:53:37;;;;;;;7.70;6.37;;;20.40;83.50;;;;;;5054089;28;20570;-74
2021/09/11 07:56:04;;;;;;;6.40;5.80;;;20.40;83.40;;;;;;5069356;28;20432;-74
2021/09/11 07:58:31;;;;;;;6.53;5.77;;;20.40;84.40;;;;;;5058922;28;20899;-74
2021/09/11 08:01:00;;;;;;;7.20;6.50;;;20.50;83.60;;;;;;5054560;28;20465;-74
2021/09/11 08:03:27;;;;;;;6.30;5.70;;;20.60;82.30;;;;;;5054735;28;20953;-74
2021/09/11 08:05:56;;;;;;;6.63;6.03;;;20.70;81.10;;;;;;5054769;28;20446;-74
2021/09/11 08:08:23;;;;;;;6.60;6.10;;;20.70;81.30;;;;;;5056843;28;20462;-74
2021/09/11 08:10:50;;;;;;;7.60;6.83;;;20.70;80.80;;;;;;5053919;28;20552;-73
2021/09/11 08:13:18;;;;;;;7.20;6.53;;;20.70;80.00;;;;;;5054188;28;20475;-73
2021/09/11 08:15:45;;;;;;;7.37;6.00;;;20.90;78.40;;;;;;5057179;28;20454;-74
2021/09/11 08:18:12;;;;;;;6.53;6.03;;;21.00;77.70;;;;;;5060365;28;20890;-74
2021/09/11 08:20:39;;;;;;;6.10;5.60;;;21.00;77.70;;;;;;5056379;28;20466;-73
2021/09/11 08:23:07;;;;;;;75.87;12.83;;;21.20;77.00;;;;;;5054326;28;21059;-74
2021/09/11 08:25:34;;;;;;;6.83;6.13;;;21.50;74.60;;;;;;5054760;28;20515;-74
2021/09/11 08:28:01;;;;;;;5.97;5.37;;;21.70;72.70;;;;;;5056738;28;20436;-74
2021/09/11 08:30:29;;;;;;;9.97;6.70;;;21.80;71.90;;;;;;5054195;28;20459;-75
2021/09/11 08:32:56;;;;;;;13.80;6.70;;;21.80;71.30;;;;;;5053988;28;20490;-74
2021/09/11 08:35:23;;;;;;;5.90;5.40;;;21.90;70.90;;;;;;5062599;28;20444;-74
2021/09/11 08:37:50;;;;;;;6.73;6.03;;;21.90;69.90;;;;;;5055407;28;20420;-75
2021/09/11 08:40:20;;;;;;;6.47;5.70;;;21.70;70.10;;;;;;5054001;28;20526;-74
2021/09/11 08:42:48;;;;;;;6.20;5.80;;;21.60;71.00;;;;;;5054389;28;20487;-74
2021/09/11 08:45:16;;;;;;;7.20;6.53;;;21.60;72.00;;;;;;5054120;28;20463;-74
2021/09/11 08:47:45;;;;;;;6.23;5.10;;;21.60;71.90;;;;;;5054761;28;20935;-75
2021/09/11 08:50:13;;;;;;;15.13;7.10;;;21.60;72.00;;;;;;5055781;28;20488;-75
2021/09/11 08:52:44;;;;;;;6.07;5.37;;;21.80;70.20;;;;;;5055699;28;20522;-74
2021/09/11 08:55:12;;;;;;;5.80;5.30;;;21.90;69.50;;;;;;5054165;28;20467;-74
2021/09/11 08:57:41;;;;;;;5.37;4.87;;;22.00;68.60;;;;;;5056236;28;20454;-76
2021/09/11 09:00:10;;;;;;;5.13;4.63;;;22.40;67.50;;;;;;5064149;28;20477;-75
2021/09/11 09:02:37;;;;;;;5.53;5.03;;;22.70;65.70;;;;;;5058731;28;20463;-74
2021/09/11 09:05:06;;;;;;;5.03;4.63;;;23.00;63.40;;;;;;5059727;28;20455;-75
2021/09/11 09:07:38;;;;;;;5.20;4.70;;;23.20;62.30;;;;;;5065163;28;20435;-74
2021/09/11 09:10:07;;;;;;;5.40;5.00;;;23.40;61.70;;;;;;5062267;28;20489;-75
2021/09/11 09:12:36;;;;;;;5.47;4.97;;;23.40;60.20;;;;;;5057001;28;20888;-75
2021/09/11 09:15:09;;;;;;;4.90;4.50;;;23.30;60.50;;;;;;5054337;28;20435;-74
2021/09/11 09:17:45;;;;;;;5.27;4.77;;;23.20;60.80;;;;;;5060062;28;20493;-73
2021/09/11 09:20:15;;;;;;;5.07;4.67;;;23.20;61.50;;;;;;5071015;28;20444;-75
2021/09/11 09:22:45;;;;;;;7.57;5.50;;;23.20;61.20;;;;;;5066040;28;20450;-73
2021/09/11 09:25:23;;;;;;;5.53;5.07;;;23.30;60.40;;;;;;5059119;28;20543;-73
2021/09/11 09:27:52;;;;;;;5.67;5.10;;;23.10;61.40;;;;;;5071369;28;20427;-74
2021/09/11 09:30:22;;;;;;;6.03;4.87;;;23.00;61.30;;;;;;5075985;28;20472;-74
2021/09/11 09:32:50;;;;;;;6.57;5.27;;;23.00;61.30;;;;;;5074936;28;20434;-75
2021/09/11 09:35:22;;;;;;;5.90;5.30;;;23.10;61.40;;;;;;5075038;28;20442;-76
2021/09/11 09:37:59;;;;;;;6.13;5.47;;;22.80;62.90;;;;;;5074799;28;20392;-76
2021/09/11 09:40:38;;;;;;;6.27;5.27;;;23.00;61.30;;;;;;5058653;28;20444;-76
2021/09/11 09:43:05;;;;;;;5.27;4.70;;;23.10;61.40;;;;;;5054653;28;20887;-75
2021/09/11 09:45:35;;;;;;;5.60;5.10;;;23.30;61.60;;;;;;5053700;28;20478;-75
2021/09/11 09:48:09;;;;;;;6.53;5.93;;;23.60;61.90;;;;;;5052063;28;20477;-75
2021/09/11 09:50:38;;;;;;;6.20;5.60;;;23.70;60.90;;;;;;5052961;28;20494;-75
2021/09/11 09:53:05;;;;;;;8.30;4.97;;;23.70;61.10;;;;;;5057487;28;20475;-73
2021/09/11 09:55:33;;;;;;;7.00;5.43;;;23.90;60.50;;;;;;5061100;28;20556;-75
2021/09/11 09:58:01;;;;;;;6.23;5.53;;;23.90;58.80;;;;;;5061605;28;20466;-75
2021/09/11 10:00:29;;;;;;;6.40;5.80;;;24.00;60.00;;;;;;5063829;28;20438;-75
2021/09/11 10:02:58;;;;;;;7.00;6.13;;;23.90;60.00;;;;;;5070861;28;20502;-78
2021/09/11 10:05:29;;;;;;;5.53;5.00;;;24.10;59.10;;;;;;5072297;28;20431;-74
2021/09/11 10:08:07;;;;;;;6.07;5.00;;;24.20;58.20;;;;;;5054109;28;20460;-75
2021/09/11 10:10:36;;;;;;;5.37;4.87;;;24.30;56.90;;;;;;5053548;28;20484;-76
2021/09/11 10:13:11;;;;;;;5.17;4.67;;;24.20;57.10;;;;;;5053771;28;20972;-76
2021/09/11 10:15:50;;;;;;;6.57;4.37;;;24.00;57.50;;;;;;5055038;28;20471;-75
2021/09/11 10:18:41;;;;;;;5.30;4.80;;;24.00;57.50;;;;;;5075052;28;20509;-75
2021/09/11 10:21:18;;;;;;;5.23;4.73;;;23.90;57.50;;;;;;5046827;28;20469;-74
2021/09/11 10:24:00;;;;;;;5.27;4.87;;;23.80;58.40;;;;;;5067458;28;20487;-74
2021/09/11 10:26:47;;;;;;;5.30;4.80;;;23.60;57.70;;;;;;5062161;28;20433;-75
2021/09/11 10:29:44;;;;;;;4.90;4.50;;;23.90;57.90;;;;;;5042625;28;20456;-76
2021/09/11 10:32:15;;;;;;;4.97;4.27;;;24.00;56.90;;;;;;5046011;28;20470;-75
2021/09/11 10:34:52;;;;;;;4.70;4.30;;;24.00;56.10;;;;;;5055910;28;20527;-77
2021/09/11 10:37:38;;;;;;;5.10;4.60;;;23.80;57.30;;;;;;5064930;28;20456;-75
2021/09/11 10:40:31;;;;;;;4.53;4.13;;;23.70;57.30;;;;;;5055757;28;20449;-74
2021/09/11 10:43:20;;;;;;;4.30;4.00;;;24.00;56.80;;;;;;5058362;28;20522;-75
2021/09/11 10:45:56;;;;;;;4.40;4.10;;;24.00;56.50;;;;;;5057205;28;20547;-74
2021/09/11 10:48:52;;;;;;;9.77;4.90;;;24.30;55.40;;;;;;5050177;28;20478;-75
2021/09/11 10:51:35;;;;;;;4.33;4.03;;;24.40;54.90;;;;;;5025065;28;20471;-75
2021/09/11 10:54:14;;;;;;;4.57;4.17;;;24.70;53.50;;;;;;5058865;28;20583;-74
2021/09/11 10:56:45;;;;;;;5.33;3.93;;;25.10;53.60;;;;;;5053899;28;20518;-74
2021/09/11 10:59:30;;;;;;;4.37;4.07;;;25.30;52.00;;;;;;5052392;28;20527;-74
2021/09/11 11:02:37;;;;;;;5.00;4.50;;;25.10;52.70;;;;;;5065840;28;20450;-74
2021/09/11 11:05:09;;;;;;;4.97;4.57;;;24.90;52.90;;;;;;5058507;28;20925;-76
2021/09/11 11:07:43;;;;;;;5.80;4.20;;;25.00;52.90;;;;;;5055791;28;20912;-74
2021/09/11 11:10:13;;;;;;;4.87;4.47;;;25.10;51.20;;;;;;5061397;28;20450;-74
2021/09/11 11:12:44;;;;;;;4.50;4.20;;;25.10;52.00;;;;;;5058299;28;20567;-74
2021/09/11 11:15:12;;;;;;;4.47;3.67;;;25.30;51.30;;;;;;5054225;28;20481;-74
2021/09/11 11:17:44;;;;;;;4.03;3.73;;;25.50;50.30;;;;;;5053954;28;20555;-75
2021/09/11 11:20:12;;;;;;;4.37;3.97;;;25.80;49.30;;;;;;5053859;28;20540;-77
2021/09/11 11:22:42;;;;;;;4.00;3.70;;;26.00;48.80;;;;;;5054061;28;20461;-76
2021/09/11 11:25:12;;;;;;;4.30;3.90;;;26.20;48.40;;;;;;5055119;28;20439;-75
2021/09/11 11:27:40;;;;;;;6.63;4.00;;;26.30;47.20;;;;;;5055157;28;20489;-75
2021/09/11 11:30:09;;;;;;;4.80;4.27;;;26.20;47.70;;;;;;5054503;28;20459;-76
2021/09/11 11:32:36;;;;;;;4.90;4.50;;;26.20;47.60;;;;;;5054914;28;20502;-75
2021/09/11 11:35:05;;;;;;;4.20;3.90;;;26.10;48.30;;;;;;5054853;28;20423;-75
2021/09/11 11:37:33;;;;;;;4.83;4.33;;;26.00;48.30;;;;;;5056026;28;20498;-75
2021/09/11 11:40:04;;;;;;;6.03;4.13;;;25.90;48.90;;;;;;5071084;28;20426;-78
2021/09/11 11:42:33;;;;;;;7.47;4.60;;;25.60;48.90;;;;;;5075295;28;20395;-74
2021/09/11 11:45:01;;;;;;;4.83;4.43;;;25.50;50.00;;;;;;5074303;28;20457;-74
2021/09/11 11:47:36;;;;;;;4.17;3.77;;;25.50;49.60;;;;;;5077736;28;20412;-74
2021/09/11 11:50:08;;;;;;;5.40;4.73;;;25.60;49.60;;;;;;5073096;28;20509;-77
2021/09/11 11:52:36;;;;;;;4.67;4.27;;;25.90;49.10;;;;;;5057026;28;20494;-77
2021/09/11 11:55:10;;;;;;;4.60;4.20;;;26.30;47.70;;;;;;5058069;28;20472;-77
2021/09/11 11:57:37;;;;;;;4.03;3.63;;;26.30;47.00;;;;;;5055374;28;20452;-77
2021/09/11 12:00:07;;;;;;;6.10;4.33;;;26.40;46.20;;;;;;5062498;28;20487;-77
2021/09/11 12:02:36;;;;;;;4.30;3.50;;;26.30;47.70;;;;;;5055317;28;20453;-78
2021/09/11 12:05:16;;;;;;;5.73;5.20;;;26.20;46.70;;;;;;5054495;28;20511;-76
2021/09/11 12:07:52;;;;;;;4.00;3.70;;;25.80;48.40;;;;;;5048713;28;20543;-77
2021/09/11 12:10:22;;;;;;;4.30;4.00;;;25.90;49.20;;;;;;5054135;28;20460;-77
2021/09/11 12:12:51;;;;;;;4.97;4.13;;;26.20;48.00;;;;;;5055187;28;20521;-76
2021/09/11 12:15:20;;;;;;;3.17;2.87;;;26.40;47.00;;;;;;5055230;28;20457;-77
2021/09/11 12:17:55;;;;;;;2.90;2.17;;;26.90;44.80;;;;;;5056355;28;20868;-78
2021/09/11 12:20:24;;;;;;;3.50;2.10;;;27.00;41.80;;;;;;5063477;28;20415;-76
2021/09/11 12:23:11;;;;;;;2.23;2.03;;;26.60;43.30;;;;;;5056942;28;20495;-77
2021/09/11 12:25:59;;;;;;;2.10;1.90;;;26.20;44.10;;;;;;5054984;28;20457;-76
2021/09/11 12:28:41;;;;;;;2.67;2.30;;;26.00;44.20;;;;;;5055150;28;20517;-77
2021/09/11 12:31:14;;;;;;;5.90;2.70;;;25.50;44.70;;;;;;5057308;28;20460;-76
2021/09/11 12:33:46;;;;;;;4.27;2.27;;;25.20;46.50;;;;;;5062220;28;20479;-77
2021/09/11 12:36:30;;;;;;;2.40;2.20;;;25.10;46.60;;;;;;5056601;28;20419;-77
2021/09/11 12:38:59;;;;;;;4.20;2.50;;;24.80;47.90;;;;;;5056593;28;20959;-77
2021/09/11 12:41:29;;;;;;;2.57;2.37;;;24.80;48.30;;;;;;5057045;28;20496;-77
2021/09/11 12:43:56;;;;;;;4.20;2.90;;;24.80;48.70;;;;;;5056740;28;20564;-77
2021/09/11 12:46:34;;;;;;;3.03;2.83;;;24.70;49.50;;;;;;5057740;28;20431;-76
2021/09/11 12:49:03;;;;;;;3.30;3.00;;;24.80;48.80;;;;;;5061255;28;20431;-77
2021/09/11 12:51:30;;;;;;;2.80;2.50;;;25.00;48.90;;;;;;5062315;28;20481;-76
2021/09/11 12:53:57;;;;;;;3.83;2.93;;;25.10;48.40;;;;;;5061330;28;20479;-77
2021/09/11 12:56:25;;;;;;;3.30;2.60;;;25.20;48.00;;;;;;5064016;28;20427;-77
2021/09/11 12:58:55;;;;;;;2.50;2.23;;;25.20;48.00;;;;;;5061323;28;20460;-77